Pagina principale
METAR-TAF:

METAR-TAF

Aeroporti :

Mönchengladbach, Germania

latitudine: 51-13-49N, longitudine: 006-30-16E, altezza: 38 m

Osservazione

Il bollettino è stato emesso 29 minuti fa, alle 05:50 UTC
Vento 8 kt da nord-ovest
Temperature 4°C
Umidità 100%
Pressione 1006 hPa
Visibilità: 4200 m

METAR: EDLN 180550Z AUTO 32008KT 4200 // OVC004/// 04/04 Q1006

Ora: 07:19 (06:19 UTC)

Previsione

Il bollettino è stato emesso 13 ore e 19 minuti fa, alle 17:00 UTC
Previsione valida dal 17 alle 18 UTC al 18 alle 03 UTC
Vento 8 kt da nord/nord-ovest
Visibilità: 9000 m
Nuvoloso ad un'altezza di 4000 ft
Temporaneamente
dal 17 alle 19 UTC al 17 alle 23 UTC
pioggia
Evoluzione graduale
dal 17 alle 21 UTC al 17 alle 24 UTC
Visibilità: 3500 m
Nuvoloso ad un'altezza di 900 ft
foschia

TAF: EDLN 171700Z 1718/1803 34008KT 9000 BKN040 TEMPO 1719/1723 RA BECMG 1721/1724 3500 BR BKN009

Osservazioni e previsioni meteorologiche di più di 4000 aeroporti (messaggi METAR e TAF).

Le stazioni disponibili sono rappresentate dai dischi gialli e rossi sulla carta.

Puntare il mouse per vedere il nome della stazione.

Clicca sopra per visualizzare le osservazioni e previsioni meteorologiche.

Per cambiare la mappa : fare clic sui pulsanti verdi con una croce nera per ingrandire, il pulsante verde con un trattino per diminuire, o sulla freccia verde per le mappe adiacenti.


METAR-TAF: